Time;durP1;ratioP1;P1;durP2;ratioP2;P2;SDS_P1;SDS_P2;PMS_P1;PMS_P2;Temp;Humidity;BMP_temperature;BMP_pressure;BME280_temperature;BME280_humidity;BME280_pressure;Samples;Min_cycle;Max_cycle;Signal;HPM_P1;HPM_P2
2022/01/21 00:00:13;;;;;;;21.98;10.48;;;2.40;99.90;;;;;;5055137;28;20021;-56
2022/01/21 00:02:40;;;;;;;45.38;17.45;;;2.30;99.90;;;;;;5055048;28;20315;-55
2022/01/21 00:05:07;;;;;;;28.42;13.57;;;2.30;99.90;;;;;;5054957;28;20037;-55
2022/01/21 00:07:32;;;;;;;23.17;11.55;;;2.30;99.90;;;;;;5055036;28;20056;-55
2022/01/21 00:09:58;;;;;;;18.02;9.85;;;2.30;99.90;;;;;;5054958;28;20481;-55
2022/01/21 00:12:27;;;;;;;33.20;13.18;;;2.40;99.90;;;;;;5054598;28;20025;-55
2022/01/21 00:14:53;;;;;;;37.97;19.38;;;2.40;99.90;;;;;;5055067;28;20024;-55
2022/01/21 00:17:21;;;;;;;34.88;18.30;;;2.30;99.90;;;;;;5054584;28;20039;-55
2022/01/21 00:19:51;;;;;;;35.15;17.27;;;2.30;99.90;;;;;;5072796;28;20111;-55
2022/01/21 00:30:31;;;;;;;29.52;16.25;;;2.20;99.90;;;;;;5073150;28;20059;-55
2022/01/21 00:32:57;;;;;;;39.40;20.70;;;2.30;99.90;;;;;;5060550;28;20115;-55
2022/01/21 00:35:24;;;;;;;36.78;19.80;;;2.20;99.90;;;;;;5036720;28;20090;-55
2022/01/21 00:37:51;;;;;;;38.67;19.63;;;2.20;99.90;;;;;;5054374;28;20059;-55
2022/01/21 00:40:22;;;;;;;40.72;20.55;;;2.20;99.90;;;;;;5054434;28;20359;-55
2022/01/21 00:43:09;;;;;;;47.13;23.60;;;2.20;99.90;;;;;;5054412;28;20029;-55
2022/01/21 00:45:35;;;;;;;42.47;22.15;;;2.20;99.90;;;;;;5054236;28;20103;-55
2022/01/21 00:48:02;;;;;;;47.05;24.45;;;2.20;99.90;;;;;;5036479;28;20033;-55
2022/01/21 00:50:28;;;;;;;51.88;24.75;;;2.20;99.90;;;;;;5054345;28;20060;-55
2022/01/21 00:52:54;;;;;;;49.65;24.63;;;2.20;99.90;;;;;;5054172;28;20032;-55
2022/01/21 00:55:20;;;;;;;45.20;24.08;;;2.30;99.90;;;;;;5054766;28;20052;-55
2022/01/21 00:57:46;;;;;;;46.92;23.67;;;2.30;99.90;;;;;;5054283;28;20487;-55
2022/01/21 01:00:13;;;;;;;48.58;25.13;;;2.20;99.90;;;;;;5054222;28;20021;-55
2022/01/21 01:02:40;;;;;;;50.22;25.40;;;2.20;99.90;;;;;;5069791;28;20059;-55
2022/01/21 01:05:08;;;;;;;45.03;24.55;;;2.20;99.90;;;;;;5054200;28;20037;-55
2022/01/21 01:07:34;;;;;;;43.25;23.08;;;2.20;99.90;;;;;;5053905;28;20063;-55
2022/01/21 01:10:04;;;;;;;46.60;23.38;;;2.20;99.90;;;;;;5054295;28;20368;-55
2022/01/21 01:20:38;;;;;;;42.80;21.15;;;2.20;99.90;;;;;;5073873;28;20101;-55
2022/01/21 01:23:20;;;;;;;34.55;17.65;;;2.20;99.90;;;;;;5072751;28;20041;-55
2022/01/21 01:28:32;;;;;;;39.50;17.05;;;1.90;99.90;;;;;;5072616;28;20055;-55
2022/01/21 01:30:59;;;;;;;30.80;15.52;;;2.00;99.90;;;;;;5072720;28;20052;-55
2022/01/21 01:33:34;;;;;;;32.05;16.38;;;2.00;99.90;;;;;;5055936;28;20426;-55
2022/01/21 01:36:01;;;;;;;33.45;17.27;;;2.00;99.90;;;;;;5053819;28;20036;-55
2022/01/21 01:41:10;;;;;;;35.85;17.83;;;1.90;99.90;;;;;;5057907;28;20025;-55
2022/01/21 01:51:55;;;;;;;32.50;16.50;;;1.90;99.90;;;;;;5057708;28;20099;-55
2022/01/21 01:54:21;;;;;;;27.17;15.00;;;1.80;99.90;;;;;;5056300;28;20025;-55
2022/01/21 01:56:55;;;;;;;27.77;14.60;;;1.80;99.90;;;;;;5072602;28;20319;-55
2022/01/21 01:59:22;;;;;;;26.15;14.00;;;1.80;99.90;;;;;;5024004;28;20044;-55
2022/01/21 02:01:57;;;;;;;25.90;14.52;;;1.70;99.90;;;;;;5057398;28;20500;-55
2022/01/21 02:04:25;;;;;;;25.95;13.32;;;1.70;99.90;;;;;;5039368;28;20112;-55
2022/01/21 02:06:52;;;;;;;21.92;12.77;;;1.70;99.90;;;;;;5057446;28;20367;-55
2022/01/21 02:09:18;;;;;;;23.85;11.95;;;1.70;99.90;;;;;;5039092;28;20056;-55
2022/01/21 02:11:44;;;;;;;21.65;11.10;;;1.70;99.90;;;;;;5057116;28;20025;-55
2022/01/21 02:14:15;;;;;;;20.83;11.20;;;1.70;99.90;;;;;;5053425;28;20024;-55
2022/01/21 02:17:09;;;;;;;22.83;12.27;;;1.70;99.90;;;;;;5057188;28;20037;-55
2022/01/21 02:22:28;;;;;;;19.48;10.90;;;1.60;99.90;;;;;;5075767;28;20441;-55
2022/01/21 02:24:58;;;;;;;21.13;11.32;;;1.70;99.90;;;;;;5077056;28;20382;-55
2022/01/21 02:27:25;;;;;;;22.10;10.97;;;1.70;99.90;;;;;;5075821;28;20028;-55
2022/01/21 02:30:01;;;;;;;18.55;11.38;;;1.70;99.90;;;;;;5058859;28;20707;-55
2022/01/21 02:32:29;;;;;;;21.85;10.50;;;1.60;99.90;;;;;;5065318;28;20044;-55
2022/01/21 02:34:55;;;;;;;17.83;10.82;;;1.60;99.90;;;;;;5056787;28;20029;-55
2022/01/21 02:37:22;;;;;;;21.50;10.73;;;1.60;99.90;;;;;;5056667;28;20068;-55
2022/01/21 02:39:51;;;;;;;19.88;10.52;;;1.70;99.90;;;;;;5038679;28;20033;-55
2022/01/21 02:42:19;;;;;;;23.83;11.57;;;1.60;99.90;;;;;;5055376;28;20071;-55
2022/01/21 02:44:46;;;;;;;22.42;11.90;;;1.60;99.90;;;;;;5056531;28;20049;-55
2022/01/21 02:47:12;;;;;;;21.88;11.35;;;1.60;99.90;;;;;;5072179;28;20032;-55
2022/01/21 02:49:44;;;;;;;23.48;11.93;;;1.70;99.90;;;;;;5038269;28;20132;-55
2022/01/21 02:52:11;;;;;;;21.02;11.70;;;1.60;99.90;;;;;;5055076;28;20084;-55
2022/01/21 02:54:37;;;;;;;21.80;11.32;;;1.60;99.90;;;;;;5055145;28;20039;-55
2022/01/21 02:57:06;;;;;;;22.20;11.50;;;1.60;99.90;;;;;;5038580;28;20087;-55
2022/01/21 02:59:35;;;;;;;23.35;12.32;;;1.60;99.90;;;;;;5056099;28;20079;-55
2022/01/21 03:02:02;;;;;;;20.58;11.73;;;1.50;99.90;;;;;;5038267;28;20403;-55
2022/01/21 03:06:56;;;;;;;22.02;11.60;;;1.50;99.90;;;;;;5071600;28;20029;-55
2022/01/21 03:09:22;;;;;;;23.48;11.60;;;1.50;99.90;;;;;;5071236;28;20047;-55
2022/01/21 03:11:49;;;;;;;17.67;11.40;;;1.50;99.90;;;;;;5056147;28;20033;-55
2022/01/21 03:14:15;;;;;;;23.75;12.57;;;1.50;99.90;;;;;;5055723;28;20033;-55
2022/01/21 03:16:41;;;;;;;22.63;12.27;;;1.60;99.90;;;;;;5071335;28;20036;-55
2022/01/21 03:19:07;;;;;;;23.00;13.00;;;1.60;99.90;;;;;;5083952;28;20490;-55
2022/01/21 03:21:33;;;;;;;31.10;12.95;;;1.60;99.90;;;;;;5075776;28;20112;-55
2022/01/21 03:24:00;;;;;;;25.50;13.00;;;1.60;99.90;;;;;;5074611;28;20035;-55
2022/01/21 03:26:27;;;;;;;33.92;17.10;;;1.60;99.90;;;;;;5057881;28;20052;-55
2022/01/21 03:28:57;;;;;;;25.83;14.82;;;1.50;99.90;;;;;;5057580;28;20083;-56
2022/01/21 03:31:24;;;;;;;20.35;12.55;;;1.40;99.90;;;;;;5073328;28;20402;-55
2022/01/21 03:33:53;;;;;;;27.55;14.77;;;1.40;99.90;;;;;;5037724;28;20098;-55
2022/01/21 03:36:19;;;;;;;63.72;28.98;;;1.40;99.90;;;;;;5054299;28;20029;-55
2022/01/21 03:38:47;;;;;;;91.60;41.65;;;1.40;99.90;;;;;;5054127;28;20032;-55
2022/01/21 03:41:13;;;;;;;86.30;40.65;;;1.50;99.90;;;;;;5037749;28;20031;-55
2022/01/21 03:43:39;;;;;;;94.15;36.88;;;1.50;99.90;;;;;;5037314;28;20029;-55
2022/01/21 03:46:07;;;;;;;64.78;30.75;;;1.60;99.90;;;;;;5054145;28;20036;-55
2022/01/21 03:48:34;;;;;;;64.97;29.88;;;1.60;99.90;;;;;;5037283;28;20025;-55
2022/01/21 03:51:00;;;;;;;58.38;28.10;;;1.40;99.90;;;;;;5070330;28;20033;-55
2022/01/21 03:53:27;;;;;;;55.40;27.25;;;1.30;99.90;;;;;;5047357;28;20029;-55
2022/01/21 03:55:53;;;;;;;43.67;21.83;;;1.30;99.90;;;;;;5053929;28;20546;-56
2022/01/21 03:58:22;;;;;;;40.30;20.85;;;1.40;99.90;;;;;;5055079;28;20025;-55
2022/01/21 04:00:51;;;;;;;46.50;24.73;;;1.40;99.90;;;;;;5069803;28;20033;-55
2022/01/21 04:03:19;;;;;;;52.42;25.85;;;1.40;99.90;;;;;;5036940;28;20555;-55
2022/01/21 04:05:50;;;;;;;72.25;32.45;;;1.30;99.90;;;;;;5053719;28;20112;-55
2022/01/21 04:08:16;;;;;;;70.05;34.33;;;1.30;99.90;;;;;;5053997;28;20083;-55
2022/01/21 04:10:49;;;;;;;71.18;33.90;;;1.30;99.90;;;;;;5037010;28;20025;-55
2022/01/21 04:13:18;;;;;;;63.30;30.55;;;1.30;99.90;;;;;;5036704;28;20040;-55
2022/01/21 04:15:53;;;;;;;69.72;34.20;;;1.50;99.90;;;;;;5037118;28;20105;-55
2022/01/21 04:18:22;;;;;;;67.53;33.85;;;1.50;99.90;;;;;;5042529;28;20032;-55
2022/01/21 04:20:53;;;;;;;63.30;33.53;;;1.40;99.90;;;;;;5056986;28;20056;-55
2022/01/21 04:23:22;;;;;;;79.68;39.10;;;1.30;99.90;;;;;;5056776;28;20529;-55
2022/01/21 04:25:49;;;;;;;91.88;44.78;;;1.40;99.90;;;;;;5056501;28;20058;-55
2022/01/21 04:28:16;;;;;;;105.63;50.60;;;1.40;99.90;;;;;;5056764;28;20032;-55
2022/01/21 04:30:45;;;;;;;120.38;55.33;;;1.40;99.90;;;;;;5073183;28;20356;-55
2022/01/21 04:33:12;;;;;;;120.85;55.00;;;1.30;99.90;;;;;;5056784;28;20055;-55
2022/01/21 04:35:39;;;;;;;112.40;53.65;;;1.30;99.90;;;;;;5036687;28;20033;-55
2022/01/21 04:38:08;;;;;;;111.93;55.38;;;1.30;99.90;;;;;;5036690;28;20033;-55
2022/01/21 04:40:37;;;;;;;109.55;52.75;;;1.30;99.90;;;;;;5036540;28;20079;-55
2022/01/21 04:48:37;;;;;;;96.40;47.70;;;1.20;99.90;;;;;;5069504;28;20036;-55
2022/01/21 04:51:19;;;;;;;85.28;44.55;;;1.30;99.90;;;;;;5053140;28;20036;-55
2022/01/21 04:53:48;;;;;;;90.40;44.80;;;1.30;99.90;;;;;;5036168;28;20086;-55
2022/01/21 04:56:31;;;;;;;98.30;48.28;;;1.30;99.90;;;;;;5036293;28;20040;-55
2022/01/21 04:58:57;;;;;;;102.65;52.15;;;1.30;99.90;;;;;;5054357;28;20025;-55
2022/01/21 05:01:23;;;;;;;94.60;48.45;;;1.30;99.90;;;;;;5036227;28;20037;-55
2022/01/21 05:03:51;;;;;;;90.45;45.25;;;1.20;99.90;;;;;;5036504;28;20063;-55
2022/01/21 05:06:17;;;;;;;91.13;46.72;;;1.10;99.90;;;;;;5036308;28;20032;-55
2022/01/21 05:08:52;;;;;;;94.38;49.53;;;1.20;99.90;;;;;;5069513;28;20025;-55
2022/01/21 05:11:20;;;;;;;92.93;45.85;;;1.20;99.90;;;;;;5028275;28;20079;-55
2022/01/21 05:13:58;;;;;;;96.30;48.20;;;1.10;99.90;;;;;;5055998;28;20500;-55
2022/01/21 05:18:57;;;;;;;105.22;46.50;;;1.20;99.90;;;;;;5040176;28;20048;-55
2022/01/21 05:21:47;;;;;;;67.50;33.88;;;1.20;99.90;;;;;;5057964;28;20083;-55
2022/01/21 05:24:19;;;;;;;64.63;35.33;;;1.20;99.90;;;;;;5056545;28;20135;-55
2022/01/21 05:26:57;;;;;;;66.20;37.90;;;1.20;99.90;;;;;;5040205;28;20033;-55
2022/01/21 05:29:32;;;;;;;75.32;39.97;;;1.20;99.90;;;;;;5044926;28;20162;-55
2022/01/21 05:32:24;;;;;;;74.35;38.83;;;1.10;99.90;;;;;;5075693;28;20028;-55
2022/01/21 05:35:09;;;;;;;79.68;41.45;;;1.20;99.90;;;;;;5078106;28;20103;-55
2022/01/21 05:37:38;;;;;;;78.07;41.97;;;1.30;99.90;;;;;;5077680;28;20086;-55
2022/01/21 05:40:15;;;;;;;72.28;39.08;;;1.30;99.90;;;;;;5059851;28;20442;-55
2022/01/21 05:42:54;;;;;;;80.57;40.70;;;1.20;99.90;;;;;;5077717;28;20055;-55
2022/01/21 05:48:44;;;;;;;95.93;46.35;;;1.20;99.90;;;;;;5077820;28;20039;-55
2022/01/21 05:51:29;;;;;;;77.80;37.22;;;1.30;99.90;;;;;;5077654;28;20162;-56
2022/01/21 05:54:24;;;;;;;69.80;32.10;;;1.20;99.90;;;;;;5066461;28;20370;-55
2022/01/21 05:57:01;;;;;;;83.55;41.92;;;1.20;99.90;;;;;;5059237;28;20032;-55
2022/01/21 05:59:40;;;;;;;73.72;36.88;;;1.10;99.90;;;;;;5059455;28;20032;-55
2022/01/21 06:02:07;;;;;;;49.78;29.15;;;1.10;99.90;;;;;;5059563;28;20044;-55
2022/01/21 06:04:34;;;;;;;53.53;29.70;;;1.10;99.90;;;;;;5059156;28;20037;-55
2022/01/21 06:07:01;;;;;;;90.15;42.63;;;1.10;99.90;;;;;;5077225;28;20128;-55
2022/01/21 06:09:30;;;;;;;103.40;50.50;;;1.00;99.90;;;;;;5059287;28;20020;-55
2022/01/21 06:11:56;;;;;;;122.10;54.58;;;1.00;99.90;;;;;;5059166;28;20029;-55
2022/01/21 06:14:24;;;;;;;159.27;62.28;;;1.10;99.90;;;;;;5077222;28;20074;-55
2022/01/21 06:16:51;;;;;;;123.75;52.30;;;1.10;99.90;;;;;;5088256;28;20363;-55
2022/01/21 06:19:18;;;;;;;101.47;44.60;;;1.10;99.90;;;;;;5063931;28;20067;-55
2022/01/21 06:21:44;;;;;;;186.93;68.57;;;1.20;99.90;;;;;;5068605;28;20025;-55
2022/01/21 06:24:10;;;;;;;204.65;75.22;;;1.10;99.90;;;;;;5056812;28;20433;-56
2022/01/21 06:26:36;;;;;;;321.40;97.57;;;1.10;99.90;;;;;;5072623;28;20029;-56
2022/01/21 06:29:03;;;;;;;449.67;131.35;;;1.10;99.90;;;;;;5070817;28;20052;-56
2022/01/21 06:31:30;;;;;;;301.77;94.03;;;1.10;99.90;;;;;;5077061;28;20028;-55
2022/01/21 06:33:57;;;;;;;132.48;54.72;;;1.10;99.90;;;;;;5075523;28;20440;-56
2022/01/21 06:36:23;;;;;;;77.97;34.20;;;1.20;99.90;;;;;;5071050;28;20075;-57
2022/01/21 06:38:49;;;;;;;58.15;29.15;;;1.20;99.90;;;;;;5075397;28;20036;-55
2022/01/21 06:41:15;;;;;;;46.15;24.70;;;1.10;99.90;;;;;;5073419;28;20036;-55
2022/01/21 06:43:42;;;;;;;47.70;23.50;;;1.20;99.90;;;;;;5065624;28;20154;-55
2022/01/21 06:46:12;;;;;;;36.00;21.92;;;1.10;99.90;;;;;;5076933;28;20329;-55
2022/01/21 06:48:38;;;;;;;64.00;28.05;;;1.20;99.90;;;;;;5073409;28;20599;-55
2022/01/21 06:51:06;;;;;;;45.53;23.13;;;1.30;99.90;;;;;;5071723;28;20348;-55
2022/01/21 06:53:32;;;;;;;43.28;21.40;;;1.20;99.90;;;;;;5071005;28;20496;-55
2022/01/21 06:56:04;;;;;;;287.70;97.85;;;1.30;99.90;;;;;;5073046;28;20036;-55
2022/01/21 06:58:33;;;;;;;80.85;36.17;;;1.40;99.90;;;;;;5067626;28;20378;-55
2022/01/21 07:01:00;;;;;;;67.28;36.83;;;1.30;99.90;;;;;;5067784;28;20025;-55
2022/01/21 07:03:28;;;;;;;65.38;27.75;;;1.40;99.90;;;;;;5073348;28;20386;-55
2022/01/21 07:05:54;;;;;;;86.47;35.30;;;1.50;99.90;;;;;;5076312;28;20028;-55
2022/01/21 07:08:21;;;;;;;125.78;49.58;;;1.50;99.90;;;;;;5076575;28;20107;-56
2022/01/21 07:10:46;;;;;;;173.27;67.75;;;1.50;99.90;;;;;;5064925;28;20094;-55
2022/01/21 07:13:14;;;;;;;174.90;73.10;;;1.60;99.90;;;;;;5071864;28;20025;-55
2022/01/21 07:15:40;;;;;;;251.85;100.65;;;1.60;99.90;;;;;;5074948;28;20021;-55
2022/01/21 07:18:07;;;;;;;154.70;66.85;;;1.70;99.90;;;;;;5074379;28;20059;-56
2022/01/21 07:20:33;;;;;;;90.45;39.00;;;1.70;99.90;;;;;;5074520;28;20103;-55
2022/01/21 07:22:59;;;;;;;39.55;20.80;;;1.80;99.90;;;;;;5059925;28;20378;-56
2022/01/21 07:25:27;;;;;;;62.80;33.00;;;1.70;99.90;;;;;;5073968;28;20036;-56
2022/01/21 07:27:53;;;;;;;69.43;35.25;;;1.80;99.90;;;;;;5072546;28;20017;-55
2022/01/21 07:30:20;;;;;;;123.97;47.95;;;1.90;99.90;;;;;;5073086;28;20052;-56
2022/01/21 07:32:49;;;;;;;87.72;38.58;;;1.90;99.90;;;;;;5072513;28;20374;-56
2022/01/21 07:35:16;;;;;;;56.13;26.65;;;1.80;99.90;;;;;;5072435;28;20351;-56
2022/01/21 07:37:42;;;;;;;62.17;27.88;;;1.90;99.90;;;;;;5068637;28;20021;-56
2022/01/21 07:40:12;;;;;;;57.90;28.67;;;2.00;99.90;;;;;;5069020;28;20112;-56
2022/01/21 07:42:38;;;;;;;78.03;37.20;;;1.90;99.90;;;;;;5067052;28;20390;-56
2022/01/21 07:45:05;;;;;;;51.40;25.15;;;2.10;99.90;;;;;;5062521;28;20044;-56
2022/01/21 07:47:36;;;;;;;102.13;40.10;;;2.10;99.90;;;;;;5067014;28;20113;-56
2022/01/21 07:50:02;;;;;;;47.53;21.92;;;2.20;99.90;;;;;;5054055;28;20028;-56
2022/01/21 07:52:28;;;;;;;41.30;18.48;;;2.30;99.90;;;;;;5063206;28;20087;-56
2022/01/21 07:54:54;;;;;;;53.03;24.98;;;2.40;99.90;;;;;;5055515;28;20028;-56
2022/01/21 07:57:20;;;;;;;33.60;14.27;;;2.70;99.90;;;;;;5054074;28;20474;-56
2022/01/21 07:59:46;;;;;;;36.47;15.07;;;2.80;99.90;;;;;;5054742;28;20116;-56
2022/01/21 08:02:12;;;;;;;26.88;12.63;;;3.00;99.90;;;;;;5053273;28;20328;-57
2022/01/21 08:04:38;;;;;;;24.58;10.25;;;3.20;99.90;;;;;;5053192;28;20048;-54
2022/01/21 08:07:05;;;;;;;22.05;10.60;;;3.20;99.90;;;;;;5074207;28;20029;-54
2022/01/21 08:09:31;;;;;;;21.70;9.98;;;3.30;99.90;;;;;;5075040;28;20116;-54
2022/01/21 08:11:57;;;;;;;27.58;10.52;;;3.30;99.90;;;;;;5075500;28;20032;-54
2022/01/21 08:14:27;;;;;;;18.85;9.38;;;3.30;99.90;;;;;;5074707;28;20033;-57
2022/01/21 08:16:54;;;;;;;22.25;10.60;;;3.30;99.90;;;;;;5074554;28;20074;-55
2022/01/21 08:19:24;;;;;;;27.80;12.40;;;3.40;99.90;;;;;;5054308;28;20020;-55
2022/01/21 08:21:50;;;;;;;69.60;28.50;;;3.30;99.90;;;;;;5073924;28;20031;-55
2022/01/21 08:24:16;;;;;;;25.27;11.90;;;3.10;99.90;;;;;;5073233;28;20036;-55
2022/01/21 08:26:43;;;;;;;21.33;10.32;;;3.10;99.90;;;;;;5054481;28;20089;-55
2022/01/21 08:29:09;;;;;;;32.72;11.35;;;3.20;99.90;;;;;;5073392;28;20048;-56
2022/01/21 08:31:38;;;;;;;110.13;17.92;;;3.20;99.90;;;;;;5072564;28;20097;-55
2022/01/21 08:34:04;;;;;;;39.65;18.77;;;3.20;99.90;;;;;;5073902;28;20020;-55
2022/01/21 08:36:30;;;;;;;41.33;19.67;;;3.20;99.90;;;;;;5074714;28;20374;-55
2022/01/21 08:38:59;;;;;;;33.38;15.57;;;3.10;99.90;;;;;;5057210;28;20038;-55
2022/01/21 08:41:25;;;;;;;35.70;16.23;;;3.20;99.90;;;;;;5073400;28;20028;-55
2022/01/21 08:43:51;;;;;;;25.42;13.15;;;3.20;99.90;;;;;;5068065;28;20071;-55
2022/01/21 08:46:17;;;;;;;28.83;11.55;;;3.10;99.90;;;;;;5058209;28;20112;-55
2022/01/21 08:48:45;;;;;;;19.45;10.95;;;3.10;99.90;;;;;;5054160;28;20027;-55
2022/01/21 08:51:14;;;;;;;20.83;10.70;;;3.10;99.90;;;;;;5073111;28;20033;-55
2022/01/21 08:53:45;;;;;;;30.00;14.32;;;3.10;99.90;;;;;;5075195;28;20040;-55
2022/01/21 08:56:15;;;;;;;;;;;3.10;99.90;;;;;;5073934;28;20541;-55
2022/01/21 08:58:43;;;;;;;32.00;15.05;;;3.10;99.90;;;;;;5074623;28;19912;-55
2022/01/21 09:01:27;;;;;;;26.52;12.70;;;3.10;99.90;;;;;;5074673;28;20502;-55
2022/01/21 09:03:57;;;;;;;27.38;13.75;;;2.90;99.90;;;;;;5073958;28;20061;-55
2022/01/21 09:06:31;;;;;;;26.30;13.60;;;2.90;99.90;;;;;;5074696;28;20512;-55
2022/01/21 09:09:03;;;;;;;27.70;15.77;;;3.00;99.90;;;;;;5073815;28;20027;-55
2022/01/21 09:11:33;;;;;;;27.05;14.18;;;2.90;99.90;;;;;;5071592;28;20108;-56
2022/01/21 09:14:17;;;;;;;28.83;14.20;;;2.90;99.90;;;;;;5061992;28;20068;-55
2022/01/21 09:16:44;;;;;;;31.70;17.65;;;2.90;99.90;;;;;;5072501;28;20563;-55
2022/01/21 09:19:11;;;;;;;35.42;19.48;;;2.90;99.90;;;;;;5071975;28;20029;-55
2022/01/21 09:21:44;;;;;;;36.83;19.23;;;2.80;99.90;;;;;;5073394;28;20029;-55
2022/01/21 09:24:11;;;;;;;26.52;13.80;;;2.70;99.90;;;;;;5073590;28;20044;-55
2022/01/21 09:26:38;;;;;;;24.27;13.13;;;2.80;99.90;;;;;;5072708;28;20098;-55
2022/01/21 09:29:07;;;;;;;26.38;11.98;;;2.90;99.90;;;;;;5074285;28;20020;-55
2022/01/21 09:31:34;;;;;;;17.13;8.68;;;2.90;99.90;;;;;;5073324;28;20067;-55
2022/01/21 09:34:00;;;;;;;25.38;11.60;;;2.80;99.90;;;;;;5073152;28;20109;-55
2022/01/21 09:36:26;;;;;;;28.50;12.82;;;2.80;99.90;;;;;;5073275;28;20024;-55
2022/01/21 09:38:52;;;;;;;30.88;12.02;;;2.70;99.90;;;;;;5072498;28;20032;-55
2022/01/21 09:41:19;;;;;;;33.05;14.02;;;2.80;99.90;;;;;;5073339;28;20025;-55
2022/01/21 09:43:49;;;;;;;42.72;18.13;;;2.80;99.90;;;;;;5067407;28;20470;-55
2022/01/21 09:46:16;;;;;;;24.38;12.10;;;2.80;99.90;;;;;;5061420;28;20023;-56
2022/01/21 09:48:53;;;;;;;25.23;13.20;;;2.90;99.90;;;;;;5073698;28;20021;-56
2022/01/21 09:51:20;;;;;;;33.28;16.25;;;2.80;99.90;;;;;;5072443;28;20025;-56
2022/01/21 09:53:50;;;;;;;27.00;13.85;;;2.90;99.90;;;;;;5073315;28;20024;-56
2022/01/21 09:56:18;;;;;;;31.77;15.52;;;2.70;99.90;;;;;;5072117;28;20055;-56
2022/01/21 09:58:47;;;;;;;30.95;13.55;;;2.70;99.90;;;;;;5071341;28;20032;-56
2022/01/21 10:01:20;;;;;;;33.75;14.20;;;2.70;99.90;;;;;;5076491;28;20021;-56
2022/01/21 10:03:49;;;;;;;35.25;16.13;;;2.70;99.90;;;;;;5075463;28;20766;-56
2022/01/21 10:06:17;;;;;;;37.28;17.52;;;2.70;99.90;;;;;;5076371;28;20024;-56
2022/01/21 10:08:44;;;;;;;45.22;20.30;;;2.70;99.90;;;;;;5074059;28;20090;-56
2022/01/21 10:11:11;;;;;;;50.72;22.13;;;2.70;99.90;;;;;;5075394;28;20032;-56
2022/01/21 10:13:38;;;;;;;44.42;21.55;;;2.80;99.90;;;;;;5077110;28;20074;-57
2022/01/21 10:16:09;;;;;;;57.28;27.33;;;2.80;99.90;;;;;;5077638;28;20108;-58
2022/01/21 10:18:36;;;;;;;56.28;25.58;;;2.80;99.90;;;;;;5076384;28;20035;-58
2022/01/21 10:21:13;;;;;;;68.38;31.88;;;2.90;99.90;;;;;;5073415;28;20024;-58
2022/01/21 10:23:43;;;;;;;77.47;35.35;;;3.00;99.90;;;;;;5075120;28;20028;-59
2022/01/21 10:26:16;;;;;;;79.70;34.88;;;3.10;99.90;;;;;;5073903;28;20051;-59
2022/01/21 10:28:46;;;;;;;80.43;32.88;;;3.10;99.90;;;;;;5071963;28;20027;-59
2022/01/21 10:31:16;;;;;;;66.38;28.33;;;3.20;99.90;;;;;;5074122;28;20036;-59
2022/01/21 10:33:56;;;;;;;56.55;25.33;;;3.30;99.90;;;;;;5069768;28;20024;-59
2022/01/21 10:36:29;;;;;;;90.30;34.15;;;3.30;99.90;;;;;;5071323;28;20048;-59
2022/01/21 10:39:02;;;;;;;57.88;23.52;;;3.40;99.90;;;;;;5074996;28;20030;-59
2022/01/21 10:41:33;;;;;;;33.20;15.15;;;3.40;99.90;;;;;;5073759;28;20025;-59
2022/01/21 10:44:14;;;;;;;60.38;23.85;;;3.40;99.90;;;;;;5069401;28;20077;-59
2022/01/21 10:46:46;;;;;;;75.82;30.55;;;3.40;99.90;;;;;;5064657;28;20481;-59
2022/01/21 10:49:17;;;;;;;64.30;26.48;;;3.50;99.90;;;;;;5072970;28;20076;-58
2022/01/21 10:51:51;;;;;;;50.08;20.60;;;3.60;99.90;;;;;;5068201;28;20025;-58
2022/01/21 10:54:19;;;;;;;61.05;21.92;;;3.50;99.90;;;;;;5060335;28;20124;-58
2022/01/21 10:57:03;;;;;;;54.78;20.55;;;3.40;99.90;;;;;;5057613;28;20087;-58
2022/01/21 11:00:05;;;;;;;58.53;22.05;;;3.50;99.90;;;;;;5070184;28;20032;-58
2022/01/21 11:02:44;;;;;;;37.35;18.02;;;3.50;99.90;;;;;;5075378;28;20032;-58
2022/01/21 11:05:16;;;;;;;42.35;19.13;;;3.70;99.90;;;;;;5075362;28;20347;-58
2022/01/21 11:07:54;;;;;;;39.70;20.40;;;3.60;99.90;;;;;;5075610;28;20039;-58
2022/01/21 11:10:33;;;;;;;53.60;25.40;;;3.70;99.90;;;;;;5075119;28;20039;-58
2022/01/21 11:12:59;;;;;;;54.78;24.85;;;3.60;99.90;;;;;;5075846;28;20382;-58
2022/01/21 11:15:37;;;;;;;45.92;22.20;;;3.70;99.90;;;;;;5076015;28;20029;-58
2022/01/21 11:18:03;;;;;;;54.53;19.88;;;3.60;99.90;;;;;;5073311;28;20025;-58
2022/01/21 11:20:39;;;;;;;56.15;24.95;;;3.60;99.90;;;;;;5075458;28;20440;-58
2022/01/21 11:23:06;;;;;;;61.50;21.40;;;3.60;99.90;;;;;;5074586;28;20041;-58
2022/01/21 11:25:47;;;;;;;40.88;18.10;;;3.80;99.90;;;;;;5075873;28;20028;-58
2022/01/21 11:28:16;;;;;;;38.17;16.13;;;4.40;99.90;;;;;;5075593;28;20020;-58
2022/01/21 11:30:44;;;;;;;31.17;14.90;;;5.10;99.90;;;;;;5073527;28;20108;-58
2022/01/21 11:33:10;;;;;;;42.25;15.35;;;5.80;99.90;;;;;;5073968;28;20052;-58
2022/01/21 11:35:36;;;;;;;28.05;11.18;;;5.90;99.90;;;;;;5075341;28;20036;-58
2022/01/21 11:38:07;;;;;;;21.25;7.53;;;6.40;98.50;;;;;;5075099;28;20039;-58
2022/01/21 11:40:34;;;;;;;;;;;6.70;95.90;;;;;;5072410;28;20017;-58
2022/01/21 11:43:03;;;;;;;47.95;9.77;;;8.00;94.40;;;;;;5055724;28;19951;-58
2022/01/21 11:45:43;;;;;;;28.83;9.15;;;8.20;93.20;;;;;;5055840;28;20037;-58
2022/01/21 11:50:49;;;;;;;16.40;5.55;;;9.10;72.80;;;;;;5072370;28;20020;-59
2022/01/21 11:53:44;;;;;;;12.38;3.60;;;7.40;87.70;;;;;;5073863;28;20063;-58
2022/01/21 11:56:32;;;;;;;22.30;5.72;;;7.20;91.00;;;;;;5072800;28;20431;-59
2022/01/21 11:59:59;;;;;;;14.95;4.78;;;7.30;91.80;;;;;;5073487;28;20116;-59
2022/01/21 12:02:30;;;;;;;42.45;12.85;;;7.20;93.10;;;;;;4971208;28;20027;-59
2022/01/21 12:05:06;;;;;;;67.50;13.75;;;6.70;92.20;;;;;;4976503;28;20039;-59
2022/01/21 12:07:35;;;;;;;17.70;5.55;;;6.60;93.60;;;;;;4971723;28;20035;-59
2022/01/21 12:10:06;;;;;;;23.40;4.88;;;6.20;95.40;;;;;;4972955;28;20035;-59
2022/01/21 12:12:45;;;;;;;38.15;7.68;;;5.80;90.10;;;;;;4963973;28;20039;-59
2022/01/21 12:15:42;;;;;;;19.08;4.55;;;5.40;93.60;;;;;;4988328;28;20042;-59
2022/01/21 12:20:58;;;;;;;11.40;2.83;;;5.00;91.30;;;;;;4973515;28;20509;-59
2022/01/21 12:23:26;;;;;;;13.07;3.67;;;4.40;92.10;;;;;;4968565;28;20071;-59
2022/01/21 12:26:22;;;;;;;16.67;4.72;;;3.90;92.20;;;;;;4972734;28;20513;-59
2022/01/21 12:28:59;;;;;;;35.30;7.85;;;4.00;94.00;;;;;;4970869;28;20031;-59
2022/01/21 12:31:47;;;;;;;20.83;4.15;;;4.50;96.50;;;;;;4944107;28;20147;-59
2022/01/21 12:34:26;;;;;;;19.17;5.45;;;5.40;90.60;;;;;;5041318;28;20382;-59
2022/01/21 12:36:58;;;;;;;8.85;3.10;;;6.10;88.80;;;;;;5040650;28;20410;-59
2022/01/21 12:39:43;;;;;;;34.92;6.30;;;6.80;75.70;;;;;;5016772;28;20036;-59
2022/01/21 12:42:23;;;;;;;17.63;7.10;;;7.60;71.90;;;;;;5036943;28;20076;-59
2022/01/21 12:44:55;;;;;;;25.50;5.22;;;8.60;71.70;;;;;;5040118;28;20029;-59
2022/01/21 12:47:28;;;;;;;32.85;8.70;;;9.20;51.60;;;;;;5041748;28;20104;-59
2022/01/21 12:49:56;;;;;;;17.67;4.18;;;9.40;50.80;;;;;;5042459;28;20021;-59
2022/01/21 12:53:19;;;;;;;43.42;11.35;;;9.00;53.50;;;;;;5041554;28;20039;-59
2022/01/21 12:55:58;;;;;;;23.05;4.80;;;9.30;46.50;;;;;;5041412;28;20041;-59
2022/01/21 12:58:30;;;;;;;17.40;4.80;;;9.50;45.10;;;;;;5038920;28;20076;-59
2022/01/21 13:01:04;;;;;;;28.05;5.50;;;9.90;46.00;;;;;;5041940;28;20024;-59
2022/01/21 13:03:51;;;;;;;18.00;5.53;;;11.20;44.40;;;;;;5039803;28;20029;-59
2022/01/21 13:06:20;;;;;;;24.10;7.28;;;10.60;38.30;;;;;;5038806;28;20031;-59
2022/01/21 13:09:02;;;;;;;16.67;4.60;;;10.60;39.30;;;;;;5043142;28;20048;-59
2022/01/21 13:11:30;;;;;;;16.27;3.55;;;11.00;39.20;;;;;;5037145;28;20017;-59
2022/01/21 13:17:05;;;;;;;16.98;4.10;;;11.60;36.80;;;;;;5039898;28;20068;-56
2022/01/21 13:19:51;;;;;;;8.82;2.30;;;11.10;38.30;;;;;;5042405;28;20147;-56
2022/01/21 13:22:20;;;;;;;21.08;5.82;;;10.90;36.40;;;;;;5040595;28;20041;-56
2022/01/21 13:25:09;;;;;;;12.50;3.97;;;11.00;37.10;;;;;;5044367;28;20037;-56
2022/01/21 13:27:53;;;;;;;16.85;4.18;;;11.00;37.10;;;;;;5041703;28;20025;-56
2022/01/21 13:30:22;;;;;;;14.23;2.90;;;10.40;36.30;;;;;;5034269;28;20045;-56
2022/01/21 13:32:56;;;;;;;17.75;2.97;;;10.00;36.60;;;;;;5053905;28;20021;-56
2022/01/21 13:35:24;;;;;;;10.45;3.63;;;9.90;36.20;;;;;;5058345;28;20033;-56
2022/01/21 13:38:08;;;;;;;8.23;2.17;;;10.10;37.60;;;;;;5058336;28;20048;-56
2022/01/21 13:40:38;;;;;;;19.10;3.70;;;10.10;34.40;;;;;;5058289;28;20078;-56
2022/01/21 13:43:28;;;;;;;12.25;3.67;;;10.20;35.00;;;;;;5058130;28;20055;-56
2022/01/21 13:46:09;;;;;;;14.50;4.75;;;10.30;35.10;;;;;;5057510;28;20032;-56
2022/01/21 13:48:36;;;;;;;15.65;4.10;;;9.50;36.20;;;;;;5049859;28;20036;-56
2022/01/21 13:51:04;;;;;;;19.00;4.38;;;9.70;38.50;;;;;;5037517;28;20399;-56